sensor_id;sensor_type;location;lat;lon;timestamp;pressure;altitude;pressure_sealevel;temperature;humidity
13709;BME280;54933;51.908;7.730;2023-12-29T00:02:12;100140.34;;;20.55;73.39
13709;BME280;54933;51.908;7.730;2023-12-29T00:04:37;100126.84;;;20.55;73.34
13709;BME280;54933;51.908;7.730;2023-12-29T00:07:03;100134.94;;;20.55;73.18
13709;BME280;54933;51.908;7.730;2023-12-29T00:09:28;100133.88;;;20.56;73.25
13709;BME280;54933;51.908;7.730;2023-12-29T00:11:53;100128.50;;;20.56;73.18
13709;BME280;54933;51.908;7.730;2023-12-29T00:14:19;100129.56;;;20.55;73.35
13709;BME280;54933;51.908;7.730;2023-12-29T00:16:44;100123.09;;;20.56;73.25
13709;BME280;54933;51.908;7.730;2023-12-29T00:19:11;100131.19;;;20.56;73.15
13709;BME280;54933;51.908;7.730;2023-12-29T00:21:36;100120.41;;;20.56;73.55
13709;BME280;54933;51.908;7.730;2023-12-29T00:24:02;100127.47;;;20.57;73.31
13709;BME280;54933;51.908;7.730;2023-12-29T00:26:27;100122.06;;;20.57;72.84
13709;BME280;54933;51.908;7.730;2023-12-29T00:28:54;100119.34;;;20.57;73.13
13709;BME280;54933;51.908;7.730;2023-12-29T00:31:19;100119.34;;;20.57;73.00
13709;BME280;54933;51.908;7.730;2023-12-29T00:33:44;100119.34;;;20.57;72.99
13709;BME280;54933;51.908;7.730;2023-12-29T00:36:16;100119.34;;;20.57;73.06
13709;BME280;54933;51.908;7.730;2023-12-29T00:38:42;100114.75;;;20.58;73.03
13709;BME280;54933;51.908;7.730;2023-12-29T00:41:07;100121.00;;;20.58;73.00
13709;BME280;54933;51.908;7.730;2023-12-29T00:43:32;100115.59;;;20.58;73.02
13709;BME280;54933;51.908;7.730;2023-12-29T00:45:58;100099.41;;;20.58;73.01
13709;BME280;54933;51.908;7.730;2023-12-29T00:48:23;100101.25;;;20.58;72.99
13709;BME280;54933;51.908;7.730;2023-12-29T00:50:48;100109.38;;;20.58;73.03
13709;BME280;54933;51.908;7.730;2023-12-29T00:53:13;100110.19;;;20.58;73.09
13709;BME280;54933;51.908;7.730;2023-12-29T00:55:39;100095.63;;;20.59;73.01
13709;BME280;54933;51.908;7.730;2023-12-29T00:58:04;100092.13;;;20.59;72.92
13709;BME280;54933;51.908;7.730;2023-12-29T01:00:29;100114.53;;;20.59;73.05
13709;BME280;54933;51.908;7.730;2023-12-29T01:02:54;100101.88;;;20.60;72.78
13709;BME280;54933;51.908;7.730;2023-12-29T01:05:20;100101.03;;;20.59;73.07
13709;BME280;54933;51.908;7.730;2023-12-29T01:07:45;100070.31;;;20.60;72.85
13709;BME280;54933;51.908;7.730;2023-12-29T01:10:11;100086.50;;;20.60;72.84
13709;BME280;54933;51.908;7.730;2023-12-29T01:12:36;100092.69;;;20.61;72.79
13709;BME280;54933;51.908;7.730;2023-12-29T01:15:01;100075.72;;;20.60;72.88
13709;BME280;54933;51.908;7.730;2023-12-29T01:17:27;100091.06;;;20.60;72.73
13709;BME280;54933;51.908;7.730;2023-12-29T01:19:53;100086.50;;;20.60;72.82
13709;BME280;54933;51.908;7.730;2023-12-29T01:22:19;100088.13;;;20.61;72.74
13709;BME280;54933;51.908;7.730;2023-12-29T01:24:44;100076.50;;;20.61;72.72
13709;BME280;54933;51.908;7.730;2023-12-29T01:27:09;100085.44;;;20.61;72.65
13709;BME280;54933;51.908;7.730;2023-12-29T01:29:35;100088.13;;;20.61;72.76
13709;BME280;54933;51.908;7.730;2023-12-29T01:32:00;100076.50;;;20.61;72.70
13709;BME280;54933;51.908;7.730;2023-12-29T01:34:26;100075.72;;;20.60;72.70
13709;BME280;54933;51.908;7.730;2023-12-29T01:36:57;100082.75;;;20.61;72.66
13709;BME280;54933;51.908;7.730;2023-12-29T01:39:22;100078.16;;;20.62;72.69
13709;BME280;54933;51.908;7.730;2023-12-29T01:41:48;100082.75;;;20.61;72.76
13709;BME280;54933;51.908;7.730;2023-12-29T01:44:22;100072.78;;;20.62;72.75
13709;BME280;54933;51.908;7.730;2023-12-29T01:46:54;100060.31;;;20.61;72.83
13709;BME280;54933;51.908;7.730;2023-12-29T01:49:20;100065.72;;;20.61;72.79
13709;BME280;54933;51.908;7.730;2023-12-29T01:51:54;100058.44;;;20.61;72.73
13709;BME280;54933;51.908;7.730;2023-12-29T01:54:20;100072.78;;;20.62;72.87
13709;BME280;54933;51.908;7.730;2023-12-29T01:56:48;100055.75;;;20.61;72.61
13709;BME280;54933;51.908;7.730;2023-12-29T01:59:15;100088.13;;;20.61;72.89
13709;BME280;54933;51.908;7.730;2023-12-29T02:01:42;100078.16;;;20.62;72.64
13709;BME280;54933;51.908;7.730;2023-12-29T02:04:09;100098.94;;;20.61;72.64
13709;BME280;54933;51.908;7.730;2023-12-29T02:06:34;100085.44;;;20.61;72.52
13709;BME280;54933;51.908;7.730;2023-12-29T02:09:02;100105.16;;;20.62;72.59
13709;BME280;54933;51.908;7.730;2023-12-29T02:11:28;100094.38;;;20.62;72.74
13709;BME280;54933;51.908;7.730;2023-12-29T02:13:54;100088.13;;;20.61;72.43
13709;BME280;54933;51.908;7.730;2023-12-29T02:16:33;100082.75;;;20.61;72.50
13709;BME280;54933;51.908;7.730;2023-12-29T02:18:59;100085.44;;;20.61;72.49
13709;BME280;54933;51.908;7.730;2023-12-29T02:21:26;100085.44;;;20.61;72.44
13709;BME280;54933;51.908;7.730;2023-12-29T02:23:51;100093.53;;;20.61;72.59
13709;BME280;54933;51.908;7.730;2023-12-29T02:26:19;100094.38;;;20.62;72.51
13709;BME280;54933;51.908;7.730;2023-12-29T02:28:52;100078.16;;;20.62;72.46
13709;BME280;54933;51.908;7.730;2023-12-29T02:31:24;100047.66;;;20.61;72.52
13709;BME280;54933;51.908;7.730;2023-12-29T02:33:51;100017.13;;;20.61;72.38
13709;BME280;54933;51.908;7.730;2023-12-29T02:36:18;100038.72;;;20.61;72.41
13709;BME280;54933;51.908;7.730;2023-12-29T02:38:44;100049.50;;;20.61;72.32
13709;BME280;54933;51.908;7.730;2023-12-29T02:41:11;100051.41;;;20.60;72.27
13709;BME280;54933;51.908;7.730;2023-12-29T02:43:38;100047.88;;;20.60;72.42
13709;BME280;54933;51.908;7.730;2023-12-29T02:46:03;100046.00;;;20.60;72.36
13709;BME280;54933;51.908;7.730;2023-12-29T02:48:28;100044.13;;;20.61;72.41
13709;BME280;54933;51.908;7.730;2023-12-29T02:50:53;100042.47;;;20.60;72.46
13709;BME280;54933;51.908;7.730;2023-12-29T02:53:19;100059.28;;;20.62;72.37
13709;BME280;54933;51.908;7.730;2023-12-29T02:55:44;100043.09;;;20.62;72.41
13709;BME280;54933;51.908;7.730;2023-12-29T02:58:09;100026.06;;;20.61;71.95
13709;BME280;54933;51.908;7.730;2023-12-29T03:00:34;100028.75;;;20.61;72.41
13709;BME280;54933;51.908;7.730;2023-12-29T03:03:00;100026.06;;;20.61;72.31
13709;BME280;54933;51.908;7.730;2023-12-29T03:05:25;99994.72;;;20.60;72.17
13709;BME280;54933;51.908;7.730;2023-12-29T03:07:50;99999.06;;;20.61;72.28
13709;BME280;54933;51.908;7.730;2023-12-29T03:10:16;100007.16;;;20.61;72.16
13709;BME280;54933;51.908;7.730;2023-12-29T03:12:41;100012.56;;;20.61;72.32
13709;BME280;54933;51.908;7.730;2023-12-29T03:15:06;100006.31;;;20.61;72.10
13709;BME280;54933;51.908;7.730;2023-12-29T03:17:32;100024.19;;;20.62;72.07
13709;BME280;54933;51.908;7.730;2023-12-29T03:19:58;100018.78;;;20.62;72.07
13709;BME280;54933;51.908;7.730;2023-12-29T03:22:23;100033.13;;;20.62;71.89
13709;BME280;54933;51.908;7.730;2023-12-29T03:24:48;100017.97;;;20.61;71.99
13709;BME280;54933;51.908;7.730;2023-12-29T03:27:14;100020.66;;;20.61;72.12
13709;BME280;54933;51.908;7.730;2023-12-29T03:29:39;100026.06;;;20.61;71.91
13709;BME280;54933;51.908;7.730;2023-12-29T03:32:05;100008.81;;;20.62;72.22
13709;BME280;54933;51.908;7.730;2023-12-29T03:34:32;100012.56;;;20.61;71.99
13709;BME280;54933;51.908;7.730;2023-12-29T03:36:57;100001.75;;;20.61;71.95
13709;BME280;54933;51.908;7.730;2023-12-29T03:39:22;100012.56;;;20.61;71.99
13709;BME280;54933;51.908;7.730;2023-12-29T03:41:48;100008.81;;;20.62;71.88
13709;BME280;54933;51.908;7.730;2023-12-29T03:44:13;100016.91;;;20.62;71.78
13709;BME280;54933;51.908;7.730;2023-12-29T03:46:40;100017.97;;;20.61;71.88
13709;BME280;54933;51.908;7.730;2023-12-29T03:49:05;100024.19;;;20.62;71.99
13709;BME280;54933;51.908;7.730;2023-12-29T03:51:31;100014.22;;;20.62;71.90
13709;BME280;54933;51.908;7.730;2023-12-29T03:53:56;100018.78;;;20.62;71.93
13709;BME280;54933;51.908;7.730;2023-12-29T03:56:23;100001.75;;;20.61;72.07
13709;BME280;54933;51.908;7.730;2023-12-29T03:58:48;100014.44;;;20.61;71.64
13709;BME280;54933;51.908;7.730;2023-12-29T04:01:15;100019.63;;;20.62;71.86
13709;BME280;54933;51.908;7.730;2023-12-29T04:03:41;100021.50;;;20.62;72.01
13709;BME280;54933;51.908;7.730;2023-12-29T04:06:07;100016.91;;;20.62;71.79
13709;BME280;54933;51.908;7.730;2023-12-29T04:08:33;100009.84;;;20.61;71.99
13709;BME280;54933;51.908;7.730;2023-12-29T04:10:58;100012.56;;;20.61;72.00
13709;BME280;54933;51.908;7.730;2023-12-29T04:13:23;100008.81;;;20.62;71.99
13709;BME280;54933;51.908;7.730;2023-12-29T04:15:49;99997.19;;;20.62;71.83
13709;BME280;54933;51.908;7.730;2023-12-29T04:18:14;99988.25;;;20.61;71.91
13709;BME280;54933;51.908;7.730;2023-12-29T04:20:39;100000.72;;;20.62;71.93
13709;BME280;54933;51.908;7.730;2023-12-29T04:23:06;99990.97;;;20.61;71.76
13709;BME280;54933;51.908;7.730;2023-12-29T04:25:33;99996.34;;;20.61;71.77
13709;BME280;54933;51.908;7.730;2023-12-29T04:27:58;99981.81;;;20.62;71.76
13709;BME280;54933;51.908;7.730;2023-12-29T04:30:24;99978.28;;;20.62;71.79
13709;BME280;54933;51.908;7.730;2023-12-29T04:32:49;99981.00;;;20.62;71.82
13709;BME280;54933;51.908;7.730;2023-12-29T04:35:14;99987.22;;;20.62;72.06
13709;BME280;54933;51.908;7.730;2023-12-29T04:37:41;99980.16;;;20.61;71.99
13709;BME280;54933;51.908;7.730;2023-12-29T04:40:07;100000.13;;;20.60;71.86
13709;BME280;54933;51.908;7.730;2023-12-29T04:42:32;100005.53;;;20.60;71.96
13709;BME280;54933;51.908;7.730;2023-12-29T04:44:57;100000.13;;;20.60;71.90
13709;BME280;54933;51.908;7.730;2023-12-29T04:47:22;100002.00;;;20.60;72.05
13709;BME280;54933;51.908;7.730;2023-12-29T04:49:48;99993.06;;;20.59;72.09
13709;BME280;54933;51.908;7.730;2023-12-29T04:52:13;99999.28;;;20.60;72.00
13709;BME280;54933;51.908;7.730;2023-12-29T04:54:38;100007.63;;;20.58;72.03
13709;BME280;54933;51.908;7.730;2023-12-29T04:57:03;99996.84;;;20.58;72.05
13709;BME280;54933;51.908;7.730;2023-12-29T04:59:29;99995.75;;;20.59;72.09
13709;BME280;54933;51.908;7.730;2023-12-29T05:01:54;100002.22;;;20.58;72.10
13709;BME280;54933;51.908;7.730;2023-12-29T05:04:19;99990.59;;;20.58;72.11
13709;BME280;54933;51.908;7.730;2023-12-29T05:06:44;99994.13;;;20.58;71.88
13709;BME280;54933;51.908;7.730;2023-12-29T05:09:10;99996.00;;;20.58;72.21
13709;BME280;54933;51.908;7.730;2023-12-29T05:11:35;99994.13;;;20.58;72.32
13709;BME280;54933;51.908;7.730;2023-12-29T05:14:00;99995.19;;;20.57;72.18
13709;BME280;54933;51.908;7.730;2023-12-29T05:16:25;99988.72;;;20.58;72.17
13709;BME280;54933;51.908;7.730;2023-12-29T05:18:51;99985.19;;;20.58;72.40
13709;BME280;54933;51.908;7.730;2023-12-29T05:21:17;99996.84;;;20.58;72.15
13709;BME280;54933;51.908;7.730;2023-12-29T05:23:43;99993.31;;;20.58;72.36
13709;BME280;54933;51.908;7.730;2023-12-29T05:26:09;99986.03;;;20.58;72.38
13709;BME280;54933;51.908;7.730;2023-12-29T05:28:34;99979.81;;;20.58;72.26
13709;BME280;54933;51.908;7.730;2023-12-29T05:30:59;99987.91;;;20.58;72.35
13709;BME280;54933;51.908;7.730;2023-12-29T05:33:28;100011.41;;;20.57;72.30
13709;BME280;54933;51.908;7.730;2023-12-29T05:35:54;100009.25;;;20.59;72.08
13709;BME280;54933;51.908;7.730;2023-12-29T05:38:19;99992.25;;;20.59;72.20
13709;BME280;54933;51.908;7.730;2023-12-29T05:40:44;99988.72;;;20.58;72.29
13709;BME280;54933;51.908;7.730;2023-12-29T05:43:09;99988.72;;;20.58;72.17
13709;BME280;54933;51.908;7.730;2023-12-29T05:45:35;99975.25;;;20.58;72.22
13709;BME280;54933;51.908;7.730;2023-12-29T05:48:00;99986.03;;;20.58;72.10
13709;BME280;54933;51.908;7.730;2023-12-29T05:50:25;99994.13;;;20.58;72.21
13709;BME280;54933;51.908;7.730;2023-12-29T05:52:50;99996.84;;;20.58;72.08
13709;BME280;54933;51.908;7.730;2023-12-29T05:55:17;99996.84;;;20.58;72.20
13709;BME280;54933;51.908;7.730;2023-12-29T05:57:43;99991.44;;;20.58;71.98
13709;BME280;54933;51.908;7.730;2023-12-29T06:00:11;100002.22;;;20.58;72.04
13709;BME280;54933;51.908;7.730;2023-12-29T06:02:42;100011.16;;;20.59;71.87
13709;BME280;54933;51.908;7.730;2023-12-29T06:05:10;100015.50;;;20.60;71.89
13709;BME280;54933;51.908;7.730;2023-12-29T06:07:35;100015.72;;;20.58;71.88
13709;BME280;54933;51.908;7.730;2023-12-29T06:10:01;100032.97;;;20.57;71.86
13709;BME280;54933;51.908;7.730;2023-12-29T06:12:26;100021.34;;;20.57;72.04
13709;BME280;54933;51.908;7.730;2023-12-29T06:14:51;100016.78;;;20.57;72.00
13709;BME280;54933;51.908;7.730;2023-12-29T06:17:16;100014.31;;;20.56;72.20
13709;BME280;54933;51.908;7.730;2023-12-29T06:19:42;100013.50;;;20.55;72.03
13709;BME280;54933;51.908;7.730;2023-12-29T06:22:07;100027.00;;;20.55;72.10
13709;BME280;54933;51.908;7.730;2023-12-29T06:24:39;100017.22;;;20.54;72.16
13709;BME280;54933;51.908;7.730;2023-12-29T06:27:04;100030.72;;;20.54;72.32
13709;BME280;54933;51.908;7.730;2023-12-29T06:29:29;100021.81;;;20.54;72.33
13709;BME280;54933;51.908;7.730;2023-12-29T06:31:55;100016.44;;;20.54;72.50
13709;BME280;54933;51.908;7.730;2023-12-29T06:34:20;100031.78;;;20.53;72.29
13709;BME280;54933;51.908;7.730;2023-12-29T06:36:45;100038.81;;;20.54;72.27
13709;BME280;54933;51.908;7.730;2023-12-29T06:39:10;100033.41;;;20.54;72.45
13709;BME280;54933;51.908;7.730;2023-12-29T06:41:36;100036.34;;;20.53;72.45
13709;BME280;54933;51.908;7.730;2023-12-29T06:44:01;100031.78;;;20.53;72.34
13709;BME280;54933;51.908;7.730;2023-12-29T06:46:27;100030.16;;;20.52;72.42
13709;BME280;54933;51.908;7.730;2023-12-29T06:48:52;100041.75;;;20.53;72.29
13709;BME280;54933;51.908;7.730;2023-12-29T06:51:18;100047.97;;;20.53;72.26
13709;BME280;54933;51.908;7.730;2023-12-29T06:53:44;100038.25;;;20.52;72.29
13709;BME280;54933;51.908;7.730;2023-12-29T06:56:14;100033.88;;;20.51;72.24
13709;BME280;54933;51.908;7.730;2023-12-29T06:58:40;100034.13;;;20.50;72.29
13709;BME280;54933;51.908;7.730;2023-12-29T07:01:05;100030.59;;;20.49;72.40
13709;BME280;54933;51.908;7.730;2023-12-29T07:03:30;100038.69;;;20.49;72.32
13709;BME280;54933;51.908;7.730;2023-12-29T07:05:55;100062.97;;;20.49;72.49
13709;BME280;54933;51.908;7.730;2023-12-29T07:08:20;100041.38;;;20.49;72.42
13709;BME280;54933;51.908;7.730;2023-12-29T07:10:46;100028.97;;;20.48;72.37
13709;BME280;54933;51.908;7.730;2023-12-29T07:13:15;100037.06;;;20.48;72.51
13709;BME280;54933;51.908;7.730;2023-12-29T07:15:40;100042.44;;;20.48;72.46
13709;BME280;54933;51.908;7.730;2023-12-29T07:18:05;100035.19;;;20.49;72.47
13709;BME280;54933;51.908;7.730;2023-12-29T07:20:31;100045.16;;;20.48;72.28
13709;BME280;54933;51.908;7.730;2023-12-29T07:22:56;100041.38;;;20.49;72.35
13709;BME280;54933;51.908;7.730;2023-12-29T07:25:21;100038.69;;;20.49;72.40
13709;BME280;54933;51.908;7.730;2023-12-29T07:27:46;100046.78;;;20.49;72.59
13709;BME280;54933;51.908;7.730;2023-12-29T07:30:12;100035.19;;;20.49;72.42
13709;BME280;54933;51.908;7.730;2023-12-29T07:32:37;100026.25;;;20.48;72.47
13709;BME280;54933;51.908;7.730;2023-12-29T07:35:03;100031.44;;;20.50;72.46
13709;BME280;54933;51.908;7.730;2023-12-29T07:37:28;100056.53;;;20.50;72.49
13709;BME280;54933;51.908;7.730;2023-12-29T07:39:53;100049.28;;;20.51;72.50
13709;BME280;54933;51.908;7.730;2023-12-29T07:42:19;100050.09;;;20.51;72.62
13709;BME280;54933;51.908;7.730;2023-12-29T07:44:44;100049.03;;;20.52;72.34
13709;BME280;54933;51.908;7.730;2023-12-29T07:47:09;100040.13;;;20.52;72.39
13709;BME280;54933;51.908;7.730;2023-12-29T07:49:36;100039.28;;;20.51;72.34
13709;BME280;54933;51.908;7.730;2023-12-29T07:52:01;100034.72;;;20.52;72.23
13709;BME280;54933;51.908;7.730;2023-12-29T07:54:27;100041.75;;;20.53;72.45
13709;BME280;54933;51.908;7.730;2023-12-29T07:56:52;100040.94;;;20.52;72.31
13709;BME280;54933;51.908;7.730;2023-12-29T07:59:17;100030.16;;;20.52;72.41
13709;BME280;54933;51.908;7.730;2023-12-29T08:01:43;100040.94;;;20.52;72.29
13709;BME280;54933;51.908;7.730;2023-12-29T08:04:08;100049.03;;;20.52;72.13
13709;BME280;54933;51.908;7.730;2023-12-29T08:06:33;100056.91;;;20.54;72.33
13709;BME280;54933;51.908;7.730;2023-12-29T08:08:59;100047.16;;;20.53;72.24
13709;BME280;54933;51.908;7.730;2023-12-29T08:11:24;100052.53;;;20.53;72.25
13709;BME280;54933;51.908;7.730;2023-12-29T08:13:49;100043.41;;;20.54;72.37
13709;BME280;54933;51.908;7.730;2023-12-29T08:16:15;100045.28;;;20.53;72.38
13709;BME280;54933;51.908;7.730;2023-12-29T08:18:43;100026.38;;;20.53;72.32
13709;BME280;54933;51.908;7.730;2023-12-29T08:21:08;100032.63;;;20.54;72.42
13709;BME280;54933;51.908;7.730;2023-12-29T08:23:33;100042.34;;;20.55;72.29
13709;BME280;54933;51.908;7.730;2023-12-29T08:25:59;100048.59;;;20.55;72.06
13709;BME280;54933;51.908;7.730;2023-12-29T08:28:25;100039.66;;;20.55;72.12
13709;BME280;54933;51.908;7.730;2023-12-29T08:30:50;100045.88;;;20.55;72.09
13709;BME280;54933;51.908;7.730;2023-12-29T08:33:15;100052.13;;;20.56;72.07
13709;BME280;54933;51.908;7.730;2023-12-29T08:35:41;100056.69;;;20.55;72.18
13709;BME280;54933;51.908;7.730;2023-12-29T08:38:06;100052.13;;;20.56;72.14
13709;BME280;54933;51.908;7.730;2023-12-29T08:40:32;100049.41;;;20.56;72.04
13709;BME280;54933;51.908;7.730;2023-12-29T08:42:57;100041.31;;;20.56;72.02
13709;BME280;54933;51.908;7.730;2023-12-29T08:45:22;100049.19;;;20.57;71.99
13709;BME280;54933;51.908;7.730;2023-12-29T08:47:47;100050.22;;;20.56;72.00
13709;BME280;54933;51.908;7.730;2023-12-29T08:50:13;100059.97;;;20.57;72.02
13709;BME280;54933;51.908;7.730;2023-12-29T08:52:39;100052.91;;;20.56;72.05
13709;BME280;54933;51.908;7.730;2023-12-29T08:55:05;100043.78;;;20.57;72.05
13709;BME280;54933;51.908;7.730;2023-12-29T08:57:31;100046.47;;;20.57;71.75
13709;BME280;54933;51.908;7.730;2023-12-29T08:59:56;100041.09;;;20.57;71.85
13709;BME280;54933;51.908;7.730;2023-12-29T09:02:21;100048.13;;;20.58;71.98
13709;BME280;54933;51.908;7.730;2023-12-29T09:04:47;100039.19;;;20.58;71.84
13709;BME280;54933;51.908;7.730;2023-12-29T09:07:12;100045.41;;;20.58;71.65
13709;BME280;54933;51.908;7.730;2023-12-29T09:09:37;100043.78;;;20.57;71.86
13709;BME280;54933;51.908;7.730;2023-12-29T09:12:03;100057.84;;;20.59;71.86
13709;BME280;54933;51.908;7.730;2023-12-29T09:14:28;100054.09;;;20.60;71.74
13709;BME280;54933;51.908;7.730;2023-12-29T09:16:56;100052.22;;;20.61;71.64
13709;BME280;54933;51.908;7.730;2023-12-29T09:19:21;100064.91;;;20.60;71.76
13709;BME280;54933;51.908;7.730;2023-12-29T09:21:46;100071.94;;;20.61;71.20
13709;BME280;54933;51.908;7.730;2023-12-29T09:24:11;100071.94;;;20.61;71.62
13709;BME280;54933;51.908;7.730;2023-12-29T09:26:37;100074.88;;;20.60;71.64
13709;BME280;54933;51.908;7.730;2023-12-29T09:29:02;100072.78;;;20.62;71.71
13709;BME280;54933;51.908;7.730;2023-12-29T09:31:27;100071.09;;;20.61;71.68
13709;BME280;54933;51.908;7.730;2023-12-29T09:33:52;100060.09;;;20.62;71.57
13709;BME280;54933;51.908;7.730;2023-12-29T09:36:18;100058.22;;;20.63;71.57
13709;BME280;54933;51.908;7.730;2023-12-29T09:38:43;100062.81;;;20.62;71.66
13709;BME280;54933;51.908;7.730;2023-12-29T09:41:14;100067.13;;;20.63;71.51
13709;BME280;54933;51.908;7.730;2023-12-29T09:43:40;100067.13;;;20.63;71.27
13709;BME280;54933;51.908;7.730;2023-12-29T09:46:07;100056.34;;;20.63;71.40
13709;BME280;54933;51.908;7.730;2023-12-29T09:48:34;100059.03;;;20.63;71.48
13709;BME280;54933;51.908;7.730;2023-12-29T09:51:00;100063.38;;;20.64;71.41
13709;BME280;54933;51.908;7.730;2023-12-29T09:53:26;100073.13;;;20.65;71.52
13709;BME280;54933;51.908;7.730;2023-12-29T09:55:54;100066.66;;;20.66;71.49
13709;BME280;54933;51.908;7.730;2023-12-29T09:58:21;100065.03;;;20.65;71.64
13709;BME280;54933;51.908;7.730;2023-12-29T10:00:49;100058.56;;;20.66;71.37
13709;BME280;54933;51.908;7.730;2023-12-29T10:03:14;100051.53;;;20.65;71.49
13709;BME280;54933;51.908;7.730;2023-12-29T10:05:39;100066.66;;;20.66;71.37
13709;BME280;54933;51.908;7.730;2023-12-29T10:08:05;100061.28;;;20.66;71.35
13709;BME280;54933;51.908;7.730;2023-12-29T10:10:33;100065.59;;;20.67;71.36
13709;BME280;54933;51.908;7.730;2023-12-29T10:13:00;100063.97;;;20.66;71.42
13709;BME280;54933;51.908;7.730;2023-12-29T10:18:02;100053.19;;;20.66;71.55
13709;BME280;54933;51.908;7.730;2023-12-29T10:23:40;100061.88;;;20.68;71.44
13709;BME280;54933;51.908;7.730;2023-12-29T10:26:07;100050.25;;;20.68;71.32
13709;BME280;54933;51.908;7.730;2023-12-29T10:28:35;100061.03;;;20.68;71.33
13709;BME280;54933;51.908;7.730;2023-12-29T10:31:01;100053.78;;;20.68;71.53
13709;BME280;54933;51.908;7.730;2023-12-29T10:33:26;100051.91;;;20.69;71.31
13709;BME280;54933;51.908;7.730;2023-12-29T10:35:58;100044.59;;;20.69;71.39
13709;BME280;54933;51.908;7.730;2023-12-29T10:38:27;100040.28;;;20.68;71.30
13709;BME280;54933;51.908;7.730;2023-12-29T10:40:53;100038.41;;;20.69;71.23
13709;BME280;54933;51.908;7.730;2023-12-29T10:43:24;100032.19;;;20.68;71.33
13709;BME280;54933;51.908;7.730;2023-12-29T10:45:49;100038.41;;;20.69;71.45
13709;BME280;54933;51.908;7.730;2023-12-29T10:48:24;100031.09;;;20.69;71.34
13709;BME280;54933;51.908;7.730;2023-12-29T10:50:49;100036.50;;;20.69;71.26
13709;BME280;54933;51.908;7.730;2023-12-29T10:53:14;100039.22;;;20.69;71.35
13709;BME280;54933;51.908;7.730;2023-12-29T10:55:42;100036.50;;;20.69;71.40
13709;BME280;54933;51.908;7.730;2023-12-29T10:58:07;100050.00;;;20.69;71.34
13709;BME280;54933;51.908;7.730;2023-12-29T11:00:33;100047.31;;;20.69;71.39
13709;BME280;54933;51.908;7.730;2023-12-29T11:02:58;100053.53;;;20.70;71.45
13709;BME280;54933;51.908;7.730;2023-12-29T11:05:25;100048.97;;;20.70;71.27
13709;BME280;54933;51.908;7.730;2023-12-29T11:07:51;100058.09;;;20.69;71.25
13709;BME280;54933;51.908;7.730;2023-12-29T11:10:20;100048.97;;;20.70;71.26
13709;BME280;54933;51.908;7.730;2023-12-29T11:12:47;100052.72;;;20.69;71.42
13709;BME280;54933;51.908;7.730;2023-12-29T11:15:13;100051.66;;;20.70;71.29
13709;BME280;54933;51.908;7.730;2023-12-29T11:17:41;100050.84;;;20.70;71.33
13709;BME280;54933;51.908;7.730;2023-12-29T11:20:12;100041.91;;;20.69;71.30
13709;BME280;54933;51.908;7.730;2023-12-29T11:22:39;100050.00;;;20.69;71.30
13709;BME280;54933;51.908;7.730;2023-12-29T11:25:05;100057.31;;;20.69;71.44
13709;BME280;54933;51.908;7.730;2023-12-29T11:27:33;100051.91;;;20.69;71.32
13709;BME280;54933;51.908;7.730;2023-12-29T11:29:59;100054.59;;;20.69;71.26
13709;BME280;54933;51.908;7.730;2023-12-29T11:32:52;100060.56;;;20.71;71.25
13709;BME280;54933;51.908;7.730;2023-12-29T11:35:29;100063.50;;;20.69;71.33
13709;BME280;54933;51.908;7.730;2023-12-29T11:41:02;100050.00;;;20.69;71.56
13709;BME280;54933;51.908;7.730;2023-12-29T11:43:30;100045.44;;;20.70;70.95
13709;BME280;54933;51.908;7.730;2023-12-29T11:45:56;100042.75;;;20.70;71.30
13709;BME280;54933;51.908;7.730;2023-12-29T11:48:53;100031.09;;;20.69;71.08
13709;BME280;54933;51.908;7.730;2023-12-29T11:51:44;100041.09;;;20.69;70.87
13709;BME280;54933;51.908;7.730;2023-12-29T11:54:24;100031.09;;;20.69;71.31
13709;BME280;54933;51.908;7.730;2023-12-29T11:56:50;100031.09;;;20.69;71.35
13709;BME280;54933;51.908;7.730;2023-12-29T11:59:20;100037.34;;;20.70;71.34
13709;BME280;54933;51.908;7.730;2023-12-29T12:01:47;100031.09;;;20.69;71.26
13709;BME280;54933;51.908;7.730;2023-12-29T12:04:35;100039.81;;;20.71;71.09
13709;BME280;54933;51.908;7.730;2023-12-29T12:07:06;100030.06;;;20.70;71.51
13709;BME280;54933;51.908;7.730;2023-12-29T12:09:32;100043.56;;;20.70;70.94
13709;BME280;54933;51.908;7.730;2023-12-29T12:12:00;100048.97;;;20.70;71.28
13709;BME280;54933;51.908;7.730;2023-12-29T12:14:44;100040.88;;;20.70;71.20
13709;BME280;54933;51.908;7.730;2023-12-29T12:17:10;100032.78;;;20.70;71.33
13709;BME280;54933;51.908;7.730;2023-12-29T12:19:36;100034.66;;;20.70;71.26
13709;BME280;54933;51.908;7.730;2023-12-29T12:22:01;100027.38;;;20.70;71.07
13709;BME280;54933;51.908;7.730;2023-12-29T12:24:27;100043.56;;;20.70;71.29
13709;BME280;54933;51.908;7.730;2023-12-29T12:26:54;100038.97;;;20.71;71.11
13709;BME280;54933;51.908;7.730;2023-12-29T12:29:19;100038.97;;;20.71;71.17
13709;BME280;54933;51.908;7.730;2023-12-29T12:31:57;100031.09;;;20.69;71.26
13709;BME280;54933;51.908;7.730;2023-12-29T12:34:22;100032.78;;;20.70;71.32
13709;BME280;54933;51.908;7.730;2023-12-29T12:36:52;100032.78;;;20.70;71.01
13709;BME280;54933;51.908;7.730;2023-12-29T12:39:17;100039.81;;;20.71;71.18
13709;BME280;54933;51.908;7.730;2023-12-29T12:41:44;100034.41;;;20.71;71.05
13709;BME280;54933;51.908;7.730;2023-12-29T12:44:11;100032.78;;;20.70;71.25
13709;BME280;54933;51.908;7.730;2023-12-29T12:46:50;100031.94;;;20.70;71.06
13709;BME280;54933;51.908;7.730;2023-12-29T12:49:19;100027.38;;;20.70;71.16
13709;BME280;54933;51.908;7.730;2023-12-29T12:51:45;100037.09;;;20.71;71.20
13709;BME280;54933;51.908;7.730;2023-12-29T12:54:11;100038.97;;;20.71;71.30
13709;BME280;54933;51.908;7.730;2023-12-29T12:56:41;100011.97;;;20.71;71.27